sensor_id;sensor_type;location;lat;lon;timestamp;P1;durP1;ratioP1;P2;durP2;ratioP2
4744;SDS011;2386;42.138;24.746;2023-11-21T00:01:55;2.30;;;2.10;;
4744;SDS011;2386;42.138;24.746;2023-11-21T00:04:22;4.93;;;2.30;;
4744;SDS011;2386;42.138;24.746;2023-11-21T00:06:47;4.37;;;2.30;;
4744;SDS011;2386;42.138;24.746;2023-11-21T00:09:13;3.30;;;2.53;;
4744;SDS011;2386;42.138;24.746;2023-11-21T00:11:40;2.53;;;2.33;;
4744;SDS011;2386;42.138;24.746;2023-11-21T00:14:06;2.53;;;2.23;;
4744;SDS011;2386;42.138;24.746;2023-11-21T00:16:33;4.67;;;2.60;;
4744;SDS011;2386;42.138;24.746;2023-11-21T00:18:59;5.80;;;2.07;;
4744;SDS011;2386;42.138;24.746;2023-11-21T00:21:24;4.13;;;2.40;;
4744;SDS011;2386;42.138;24.746;2023-11-21T00:23:49;2.10;;;1.90;;
4744;SDS011;2386;42.138;24.746;2023-11-21T00:26:15;2.33;;;2.13;;
4744;SDS011;2386;42.138;24.746;2023-11-21T00:28:40;2.00;;;1.73;;
4744;SDS011;2386;42.138;24.746;2023-11-21T00:31:05;3.37;;;2.00;;
4744;SDS011;2386;42.138;24.746;2023-11-21T00:33:31;2.07;;;1.97;;
4744;SDS011;2386;42.138;24.746;2023-11-21T00:35:57;4.90;;;2.90;;
4744;SDS011;2386;42.138;24.746;2023-11-21T00:38:22;6.10;;;3.37;;
4744;SDS011;2386;42.138;24.746;2023-11-21T00:40:48;11.27;;;4.20;;
4744;SDS011;2386;42.138;24.746;2023-11-21T00:43:13;7.30;;;4.40;;
4744;SDS011;2386;42.138;24.746;2023-11-21T00:45:38;9.13;;;3.63;;
4744;SDS011;2386;42.138;24.746;2023-11-21T00:48:05;4.10;;;3.37;;
4744;SDS011;2386;42.138;24.746;2023-11-21T00:50:30;5.17;;;3.10;;
4744;SDS011;2386;42.138;24.746;2023-11-21T00:52:56;9.60;;;2.80;;
4744;SDS011;2386;42.138;24.746;2023-11-21T00:55:21;6.20;;;3.30;;
4744;SDS011;2386;42.138;24.746;2023-11-21T00:57:47;5.03;;;2.70;;
4744;SDS011;2386;42.138;24.746;2023-11-21T01:00:13;3.30;;;2.50;;
4744;SDS011;2386;42.138;24.746;2023-11-21T01:02:42;3.73;;;2.80;;
4744;SDS011;2386;42.138;24.746;2023-11-21T01:05:09;2.67;;;2.33;;
4744;SDS011;2386;42.138;24.746;2023-11-21T01:07:35;3.53;;;2.60;;
4744;SDS011;2386;42.138;24.746;2023-11-21T01:10:01;3.57;;;2.93;;
4744;SDS011;2386;42.138;24.746;2023-11-21T01:12:28;3.40;;;2.47;;
4744;SDS011;2386;42.138;24.746;2023-11-21T01:14:53;3.43;;;2.60;;
4744;SDS011;2386;42.138;24.746;2023-11-21T01:17:19;2.50;;;2.20;;
4744;SDS011;2386;42.138;24.746;2023-11-21T01:19:44;4.83;;;2.87;;
4744;SDS011;2386;42.138;24.746;2023-11-21T01:22:09;3.80;;;2.77;;
4744;SDS011;2386;42.138;24.746;2023-11-21T01:24:37;2.60;;;2.40;;
4744;SDS011;2386;42.138;24.746;2023-11-21T01:27:02;5.60;;;2.73;;
4744;SDS011;2386;42.138;24.746;2023-11-21T01:29:29;3.80;;;2.93;;
4744;SDS011;2386;42.138;24.746;2023-11-21T01:31:55;5.97;;;2.57;;
4744;SDS011;2386;42.138;24.746;2023-11-21T01:34:22;3.13;;;2.87;;
4744;SDS011;2386;42.138;24.746;2023-11-21T01:36:48;5.73;;;3.17;;
4744;SDS011;2386;42.138;24.746;2023-11-21T01:39:14;8.33;;;2.80;;
4744;SDS011;2386;42.138;24.746;2023-11-21T01:41:42;3.10;;;2.80;;
4744;SDS011;2386;42.138;24.746;2023-11-21T01:44:09;6.57;;;3.20;;
4744;SDS011;2386;42.138;24.746;2023-11-21T01:46:35;3.60;;;2.90;;
4744;SDS011;2386;42.138;24.746;2023-11-21T01:49:02;6.70;;;3.80;;
4744;SDS011;2386;42.138;24.746;2023-11-21T01:51:28;5.03;;;3.70;;
4744;SDS011;2386;42.138;24.746;2023-11-21T01:53:54;5.03;;;3.40;;
4744;SDS011;2386;42.138;24.746;2023-11-21T01:56:19;6.00;;;3.73;;
4744;SDS011;2386;42.138;24.746;2023-11-21T01:58:45;8.90;;;4.40;;
4744;SDS011;2386;42.138;24.746;2023-11-21T02:01:11;7.20;;;4.10;;
4744;SDS011;2386;42.138;24.746;2023-11-21T02:03:37;4.00;;;3.63;;
4744;SDS011;2386;42.138;24.746;2023-11-21T02:06:02;6.20;;;3.83;;
4744;SDS011;2386;42.138;24.746;2023-11-21T02:08:28;7.43;;;4.07;;
4744;SDS011;2386;42.138;24.746;2023-11-21T02:10:53;5.27;;;4.00;;
4744;SDS011;2386;42.138;24.746;2023-11-21T02:13:19;7.37;;;4.73;;
4744;SDS011;2386;42.138;24.746;2023-11-21T02:15:44;9.07;;;4.97;;
4744;SDS011;2386;42.138;24.746;2023-11-21T02:18:10;10.10;;;5.23;;
4744;SDS011;2386;42.138;24.746;2023-11-21T02:20:36;13.07;;;5.03;;
4744;SDS011;2386;42.138;24.746;2023-11-21T02:23:03;6.73;;;4.80;;
4744;SDS011;2386;42.138;24.746;2023-11-21T02:25:30;8.57;;;5.40;;
4744;SDS011;2386;42.138;24.746;2023-11-21T02:27:57;6.40;;;4.87;;
4744;SDS011;2386;42.138;24.746;2023-11-21T02:30:24;14.30;;;5.57;;
4744;SDS011;2386;42.138;24.746;2023-11-21T02:32:50;12.10;;;5.20;;
4744;SDS011;2386;42.138;24.746;2023-11-21T02:35:18;5.90;;;4.70;;
4744;SDS011;2386;42.138;24.746;2023-11-21T02:37:46;12.70;;;6.07;;
4744;SDS011;2386;42.138;24.746;2023-11-21T02:40:11;10.90;;;6.00;;
4744;SDS011;2386;42.138;24.746;2023-11-21T02:42:37;7.80;;;5.70;;
4744;SDS011;2386;42.138;24.746;2023-11-21T02:45:04;10.60;;;6.40;;
4744;SDS011;2386;42.138;24.746;2023-11-21T02:47:31;16.50;;;6.97;;
4744;SDS011;2386;42.138;24.746;2023-11-21T02:49:56;16.60;;;6.13;;
4744;SDS011;2386;42.138;24.746;2023-11-21T02:52:21;11.20;;;5.80;;
4744;SDS011;2386;42.138;24.746;2023-11-21T02:54:47;14.03;;;5.30;;
4744;SDS011;2386;42.138;24.746;2023-11-21T02:57:12;10.30;;;5.80;;
4744;SDS011;2386;42.138;24.746;2023-11-21T02:59:38;8.20;;;5.30;;
4744;SDS011;2386;42.138;24.746;2023-11-21T03:02:03;7.40;;;5.77;;
4744;SDS011;2386;42.138;24.746;2023-11-21T03:04:29;13.27;;;6.60;;
4744;SDS011;2386;42.138;24.746;2023-11-21T03:06:57;11.20;;;6.20;;
4744;SDS011;2386;42.138;24.746;2023-11-21T03:09:23;10.10;;;6.60;;
4744;SDS011;2386;42.138;24.746;2023-11-21T03:11:48;16.23;;;6.83;;
4744;SDS011;2386;42.138;24.746;2023-11-21T03:14:14;17.50;;;6.87;;
4744;SDS011;2386;42.138;24.746;2023-11-21T03:16:39;11.33;;;6.60;;
4744;SDS011;2386;42.138;24.746;2023-11-21T03:19:06;16.77;;;6.73;;
4744;SDS011;2386;42.138;24.746;2023-11-21T03:21:33;11.30;;;6.60;;
4744;SDS011;2386;42.138;24.746;2023-11-21T03:23:58;9.10;;;6.13;;
4744;SDS011;2386;42.138;24.746;2023-11-21T03:26:25;12.40;;;5.90;;
4744;SDS011;2386;42.138;24.746;2023-11-21T03:28:50;12.63;;;6.07;;
4744;SDS011;2386;42.138;24.746;2023-11-21T03:31:18;9.40;;;5.63;;
4744;SDS011;2386;42.138;24.746;2023-11-21T03:33:44;12.70;;;6.57;;
4744;SDS011;2386;42.138;24.746;2023-11-21T03:36:10;15.43;;;6.77;;
4744;SDS011;2386;42.138;24.746;2023-11-21T03:38:36;11.50;;;6.03;;
4744;SDS011;2386;42.138;24.746;2023-11-21T03:41:02;12.80;;;6.23;;
4744;SDS011;2386;42.138;24.746;2023-11-21T03:43:27;9.97;;;6.40;;
4744;SDS011;2386;42.138;24.746;2023-11-21T03:45:52;13.63;;;5.90;;
4744;SDS011;2386;42.138;24.746;2023-11-21T03:48:18;12.13;;;6.37;;
4744;SDS011;2386;42.138;24.746;2023-11-21T03:50:43;9.60;;;6.40;;
4744;SDS011;2386;42.138;24.746;2023-11-21T03:53:08;10.83;;;5.80;;
4744;SDS011;2386;42.138;24.746;2023-11-21T03:55:34;7.70;;;5.47;;
4744;SDS011;2386;42.138;24.746;2023-11-21T03:57:59;13.70;;;5.80;;
4744;SDS011;2386;42.138;24.746;2023-11-21T04:00:25;9.87;;;5.57;;
4744;SDS011;2386;42.138;24.746;2023-11-21T04:02:53;8.33;;;6.13;;
4744;SDS011;2386;42.138;24.746;2023-11-21T04:05:19;7.60;;;6.20;;
4744;SDS011;2386;42.138;24.746;2023-11-21T04:07:45;23.13;;;7.07;;
4744;SDS011;2386;42.138;24.746;2023-11-21T04:10:10;28.60;;;6.63;;
4744;SDS011;2386;42.138;24.746;2023-11-21T04:12:38;8.70;;;5.63;;
4744;SDS011;2386;42.138;24.746;2023-11-21T04:15:04;11.37;;;6.37;;
4744;SDS011;2386;42.138;24.746;2023-11-21T04:17:29;17.27;;;6.77;;
4744;SDS011;2386;42.138;24.746;2023-11-21T04:19:55;10.80;;;5.70;;
4744;SDS011;2386;42.138;24.746;2023-11-21T04:22:21;15.30;;;7.67;;
4744;SDS011;2386;42.138;24.746;2023-11-21T04:24:47;27.37;;;7.10;;
4744;SDS011;2386;42.138;24.746;2023-11-21T04:27:12;24.23;;;7.70;;
4744;SDS011;2386;42.138;24.746;2023-11-21T04:29:38;24.83;;;7.80;;
4744;SDS011;2386;42.138;24.746;2023-11-21T04:32:03;14.63;;;7.47;;
4744;SDS011;2386;42.138;24.746;2023-11-21T04:34:29;21.53;;;8.77;;
4744;SDS011;2386;42.138;24.746;2023-11-21T04:36:56;25.57;;;10.23;;
4744;SDS011;2386;42.138;24.746;2023-11-21T04:39:22;31.60;;;9.80;;
4744;SDS011;2386;42.138;24.746;2023-11-21T04:41:47;22.10;;;8.60;;
4744;SDS011;2386;42.138;24.746;2023-11-21T04:44:13;13.23;;;7.80;;
4744;SDS011;2386;42.138;24.746;2023-11-21T04:46:38;19.57;;;8.47;;
4744;SDS011;2386;42.138;24.746;2023-11-21T04:49:04;13.93;;;7.67;;
4744;SDS011;2386;42.138;24.746;2023-11-21T04:51:29;16.73;;;6.93;;
4744;SDS011;2386;42.138;24.746;2023-11-21T04:53:57;13.70;;;7.50;;
4744;SDS011;2386;42.138;24.746;2023-11-21T04:56:22;13.07;;;7.03;;
4744;SDS011;2386;42.138;24.746;2023-11-21T04:58:48;11.57;;;7.90;;
4744;SDS011;2386;42.138;24.746;2023-11-21T05:01:13;12.63;;;7.63;;
4744;SDS011;2386;42.138;24.746;2023-11-21T05:03:39;16.67;;;7.57;;
4744;SDS011;2386;42.138;24.746;2023-11-21T05:06:04;19.93;;;7.50;;
4744;SDS011;2386;42.138;24.746;2023-11-21T05:08:30;10.10;;;7.00;;
4744;SDS011;2386;42.138;24.746;2023-11-21T05:10:56;22.47;;;7.60;;
4744;SDS011;2386;42.138;24.746;2023-11-21T05:13:22;13.93;;;7.40;;
4744;SDS011;2386;42.138;24.746;2023-11-21T05:15:52;10.60;;;6.40;;
4744;SDS011;2386;42.138;24.746;2023-11-21T05:18:18;14.93;;;8.20;;
4744;SDS011;2386;42.138;24.746;2023-11-21T05:20:43;24.03;;;12.63;;
4744;SDS011;2386;42.138;24.746;2023-11-21T05:23:09;12.40;;;8.27;;
4744;SDS011;2386;42.138;24.746;2023-11-21T05:25:34;22.80;;;11.00;;
4744;SDS011;2386;42.138;24.746;2023-11-21T05:28:00;20.90;;;11.00;;
4744;SDS011;2386;42.138;24.746;2023-11-21T05:30:26;16.73;;;8.83;;
4744;SDS011;2386;42.138;24.746;2023-11-21T05:32:53;17.33;;;8.93;;
4744;SDS011;2386;42.138;24.746;2023-11-21T05:35:18;19.83;;;9.23;;
4744;SDS011;2386;42.138;24.746;2023-11-21T05:37:47;16.90;;;8.13;;
4744;SDS011;2386;42.138;24.746;2023-11-21T05:40:12;17.03;;;8.10;;
4744;SDS011;2386;42.138;24.746;2023-11-21T05:42:38;37.03;;;8.87;;
4744;SDS011;2386;42.138;24.746;2023-11-21T05:45:05;20.80;;;10.13;;
4744;SDS011;2386;42.138;24.746;2023-11-21T05:47:36;33.63;;;10.20;;
4744;SDS011;2386;42.138;24.746;2023-11-21T05:50:05;28.17;;;8.80;;
4744;SDS011;2386;42.138;24.746;2023-11-21T05:52:35;20.47;;;9.90;;
4744;SDS011;2386;42.138;24.746;2023-11-21T05:55:00;16.13;;;8.30;;
4744;SDS011;2386;42.138;24.746;2023-11-21T05:57:26;11.27;;;7.43;;
4744;SDS011;2386;42.138;24.746;2023-11-21T05:59:51;14.73;;;6.80;;
4744;SDS011;2386;42.138;24.746;2023-11-21T06:02:17;22.30;;;8.00;;
4744;SDS011;2386;42.138;24.746;2023-11-21T06:04:43;24.20;;;7.57;;
4744;SDS011;2386;42.138;24.746;2023-11-21T06:07:08;13.30;;;7.30;;
4744;SDS011;2386;42.138;24.746;2023-11-21T06:09:35;13.40;;;7.00;;
4744;SDS011;2386;42.138;24.746;2023-11-21T06:12:00;14.57;;;7.03;;
4744;SDS011;2386;42.138;24.746;2023-11-21T06:14:26;13.57;;;6.90;;
4744;SDS011;2386;42.138;24.746;2023-11-21T06:16:51;22.77;;;8.67;;
4744;SDS011;2386;42.138;24.746;2023-11-21T06:19:17;17.90;;;7.80;;
4744;SDS011;2386;42.138;24.746;2023-11-21T06:21:46;20.10;;;8.60;;
4744;SDS011;2386;42.138;24.746;2023-11-21T06:24:12;21.87;;;9.83;;
4744;SDS011;2386;42.138;24.746;2023-11-21T06:26:37;20.43;;;9.30;;
4744;SDS011;2386;42.138;24.746;2023-11-21T06:29:03;29.33;;;10.43;;
4744;SDS011;2386;42.138;24.746;2023-11-21T06:31:29;15.07;;;8.53;;
4744;SDS011;2386;42.138;24.746;2023-11-21T06:33:54;23.03;;;9.13;;
4744;SDS011;2386;42.138;24.746;2023-11-21T06:36:20;12.27;;;7.77;;
4744;SDS011;2386;42.138;24.746;2023-11-21T06:38:45;19.67;;;6.73;;
4744;SDS011;2386;42.138;24.746;2023-11-21T06:41:11;15.30;;;6.17;;
4744;SDS011;2386;42.138;24.746;2023-11-21T06:43:40;12.67;;;6.60;;
4744;SDS011;2386;42.138;24.746;2023-11-21T06:46:05;17.70;;;6.87;;
4744;SDS011;2386;42.138;24.746;2023-11-21T06:48:31;14.63;;;7.37;;
4744;SDS011;2386;42.138;24.746;2023-11-21T06:50:56;12.93;;;6.23;;
4744;SDS011;2386;42.138;24.746;2023-11-21T06:53:21;14.10;;;7.90;;
4744;SDS011;2386;42.138;24.746;2023-11-21T06:55:47;16.03;;;7.30;;
4744;SDS011;2386;42.138;24.746;2023-11-21T06:58:12;19.73;;;7.00;;
4744;SDS011;2386;42.138;24.746;2023-11-21T07:00:39;13.00;;;7.70;;
4744;SDS011;2386;42.138;24.746;2023-11-21T07:03:04;13.90;;;8.23;;
4744;SDS011;2386;42.138;24.746;2023-11-21T07:05:30;23.20;;;7.30;;
4744;SDS011;2386;42.138;24.746;2023-11-21T07:07:55;14.60;;;7.77;;
4744;SDS011;2386;42.138;24.746;2023-11-21T07:10:21;20.83;;;7.73;;
4744;SDS011;2386;42.138;24.746;2023-11-21T07:12:47;15.53;;;7.30;;
4744;SDS011;2386;42.138;24.746;2023-11-21T07:15:12;18.93;;;7.90;;
4744;SDS011;2386;42.138;24.746;2023-11-21T07:17:38;11.80;;;8.00;;
4744;SDS011;2386;42.138;24.746;2023-11-21T07:20:05;13.00;;;8.27;;
4744;SDS011;2386;42.138;24.746;2023-11-21T07:22:31;16.43;;;9.73;;
4744;SDS011;2386;42.138;24.746;2023-11-21T07:24:57;19.87;;;7.77;;
4744;SDS011;2386;42.138;24.746;2023-11-21T07:27:22;15.60;;;8.63;;
4744;SDS011;2386;42.138;24.746;2023-11-21T07:29:48;11.17;;;7.93;;
4744;SDS011;2386;42.138;24.746;2023-11-21T07:32:14;22.13;;;10.37;;
4744;SDS011;2386;42.138;24.746;2023-11-21T07:34:40;22.07;;;10.83;;
4744;SDS011;2386;42.138;24.746;2023-11-21T07:37:06;21.67;;;9.70;;
4744;SDS011;2386;42.138;24.746;2023-11-21T07:39:33;15.30;;;7.17;;
4744;SDS011;2386;42.138;24.746;2023-11-21T07:41:59;22.20;;;8.33;;
4744;SDS011;2386;42.138;24.746;2023-11-21T07:44:25;23.80;;;8.10;;
4744;SDS011;2386;42.138;24.746;2023-11-21T07:46:51;14.33;;;8.50;;
4744;SDS011;2386;42.138;24.746;2023-11-21T07:49:16;13.03;;;7.77;;
4744;SDS011;2386;42.138;24.746;2023-11-21T07:51:45;19.07;;;9.83;;
4744;SDS011;2386;42.138;24.746;2023-11-21T07:54:11;19.00;;;9.37;;
4744;SDS011;2386;42.138;24.746;2023-11-21T07:56:36;15.93;;;8.37;;
4744;SDS011;2386;42.138;24.746;2023-11-21T07:59:02;15.97;;;7.83;;
4744;SDS011;2386;42.138;24.746;2023-11-21T08:01:27;15.73;;;8.17;;
4744;SDS011;2386;42.138;24.746;2023-11-21T08:03:53;13.53;;;9.00;;
4744;SDS011;2386;42.138;24.746;2023-11-21T08:06:22;13.47;;;7.97;;
4744;SDS011;2386;42.138;24.746;2023-11-21T08:08:49;11.30;;;6.60;;
4744;SDS011;2386;42.138;24.746;2023-11-21T08:11:14;17.97;;;7.57;;
4744;SDS011;2386;42.138;24.746;2023-11-21T08:13:41;14.43;;;6.53;;
4744;SDS011;2386;42.138;24.746;2023-11-21T08:16:07;8.63;;;5.93;;
4744;SDS011;2386;42.138;24.746;2023-11-21T08:18:32;13.07;;;6.60;;
4744;SDS011;2386;42.138;24.746;2023-11-21T08:20:59;15.93;;;6.10;;
4744;SDS011;2386;42.138;24.746;2023-11-21T08:23:24;16.13;;;6.70;;
4744;SDS011;2386;42.138;24.746;2023-11-21T08:25:53;11.97;;;6.57;;
4744;SDS011;2386;42.138;24.746;2023-11-21T08:28:19;11.60;;;5.77;;
4744;SDS011;2386;42.138;24.746;2023-11-21T08:30:48;10.97;;;6.67;;
4744;SDS011;2386;42.138;24.746;2023-11-21T08:33:13;17.60;;;7.50;;
4744;SDS011;2386;42.138;24.746;2023-11-21T08:35:39;9.27;;;6.00;;
4744;SDS011;2386;42.138;24.746;2023-11-21T08:38:04;11.73;;;5.80;;
4744;SDS011;2386;42.138;24.746;2023-11-21T08:40:30;10.37;;;5.97;;
4744;SDS011;2386;42.138;24.746;2023-11-21T08:42:55;10.07;;;7.00;;
4744;SDS011;2386;42.138;24.746;2023-11-21T08:45:23;15.00;;;5.97;;
4744;SDS011;2386;42.138;24.746;2023-11-21T08:47:51;12.97;;;6.73;;
4744;SDS011;2386;42.138;24.746;2023-11-21T08:50:16;14.17;;;7.20;;
4744;SDS011;2386;42.138;24.746;2023-11-21T08:52:42;17.50;;;6.57;;
4744;SDS011;2386;42.138;24.746;2023-11-21T08:55:09;19.83;;;6.43;;
4744;SDS011;2386;42.138;24.746;2023-11-21T08:57:37;10.13;;;6.17;;
4744;SDS011;2386;42.138;24.746;2023-11-21T09:00:04;10.37;;;5.60;;
4744;SDS011;2386;42.138;24.746;2023-11-21T09:02:36;12.70;;;6.10;;
4744;SDS011;2386;42.138;24.746;2023-11-21T09:05:02;10.07;;;6.33;;
4744;SDS011;2386;42.138;24.746;2023-11-21T09:07:29;15.87;;;6.30;;
4744;SDS011;2386;42.138;24.746;2023-11-21T09:09:54;21.03;;;6.20;;
4744;SDS011;2386;42.138;24.746;2023-11-21T09:12:20;9.40;;;6.07;;
4744;SDS011;2386;42.138;24.746;2023-11-21T09:14:46;30.03;;;7.10;;
4744;SDS011;2386;42.138;24.746;2023-11-21T09:17:12;18.20;;;6.27;;
4744;SDS011;2386;42.138;24.746;2023-11-21T09:19:38;15.00;;;5.90;;
4744;SDS011;2386;42.138;24.746;2023-11-21T09:22:03;11.03;;;6.10;;
4744;SDS011;2386;42.138;24.746;2023-11-21T09:24:30;10.30;;;6.30;;
4744;SDS011;2386;42.138;24.746;2023-11-21T09:26:56;17.83;;;7.13;;
4744;SDS011;2386;42.138;24.746;2023-11-21T09:29:22;16.73;;;10.10;;
4744;SDS011;2386;42.138;24.746;2023-11-21T09:31:47;11.90;;;6.60;;
4744;SDS011;2386;42.138;24.746;2023-11-21T09:34:13;13.87;;;7.87;;
4744;SDS011;2386;42.138;24.746;2023-11-21T09:36:38;11.83;;;6.80;;
4744;SDS011;2386;42.138;24.746;2023-11-21T09:39:04;15.27;;;7.40;;
4744;SDS011;2386;42.138;24.746;2023-11-21T09:44:09;15.03;;;6.73;;
4744;SDS011;2386;42.138;24.746;2023-11-21T09:46:41;17.33;;;9.77;;
4744;SDS011;2386;42.138;24.746;2023-11-21T09:49:08;17.30;;;9.87;;
4744;SDS011;2386;42.138;24.746;2023-11-21T09:51:38;18.60;;;6.87;;
4744;SDS011;2386;42.138;24.746;2023-11-21T09:54:07;20.50;;;6.80;;
4744;SDS011;2386;42.138;24.746;2023-11-21T09:56:35;10.60;;;7.07;;
4744;SDS011;2386;42.138;24.746;2023-11-21T09:59:02;14.20;;;6.63;;
4744;SDS011;2386;42.138;24.746;2023-11-21T10:01:34;16.80;;;6.17;;
4744;SDS011;2386;42.138;24.746;2023-11-21T10:04:01;15.83;;;6.20;;
4744;SDS011;2386;42.138;24.746;2023-11-21T10:06:26;15.23;;;6.23;;
4744;SDS011;2386;42.138;24.746;2023-11-21T10:08:53;7.87;;;5.90;;
4744;SDS011;2386;42.138;24.746;2023-11-21T10:11:22;12.13;;;6.57;;
4744;SDS011;2386;42.138;24.746;2023-11-21T10:13:54;10.30;;;6.27;;
4744;SDS011;2386;42.138;24.746;2023-11-21T10:16:22;13.77;;;6.77;;
4744;SDS011;2386;42.138;24.746;2023-11-21T10:18:51;11.47;;;6.23;;
4744;SDS011;2386;42.138;24.746;2023-11-21T10:21:20;9.37;;;6.10;;
4744;SDS011;2386;42.138;24.746;2023-11-21T10:23:46;18.93;;;7.33;;
4744;SDS011;2386;42.138;24.746;2023-11-21T10:26:12;13.87;;;7.23;;
4744;SDS011;2386;42.138;24.746;2023-11-21T10:28:54;17.43;;;7.27;;
4744;SDS011;2386;42.138;24.746;2023-11-21T10:31:23;16.33;;;6.70;;
4744;SDS011;2386;42.138;24.746;2023-11-21T10:33:51;13.93;;;7.70;;
4744;SDS011;2386;42.138;24.746;2023-11-21T10:36:26;15.83;;;7.70;;
4744;SDS011;2386;42.138;24.746;2023-11-21T10:38:53;11.33;;;7.07;;
4744;SDS011;2386;42.138;24.746;2023-11-21T10:41:19;38.00;;;13.80;;
4744;SDS011;2386;42.138;24.746;2023-11-21T10:43:45;30.33;;;16.00;;
4744;SDS011;2386;42.138;24.746;2023-11-21T10:46:11;16.73;;;9.40;;
4744;SDS011;2386;42.138;24.746;2023-11-21T10:48:36;13.57;;;7.57;;
4744;SDS011;2386;42.138;24.746;2023-11-21T10:51:06;11.30;;;7.97;;
4744;SDS011;2386;42.138;24.746;2023-11-21T10:53:38;13.27;;;6.83;;
4744;SDS011;2386;42.138;24.746;2023-11-21T10:56:06;18.43;;;7.43;;
4744;SDS011;2386;42.138;24.746;2023-11-21T10:58:35;17.83;;;8.27;;
4744;SDS011;2386;42.138;24.746;2023-11-21T11:01:03;12.73;;;7.70;;
4744;SDS011;2386;42.138;24.746;2023-11-21T11:03:31;20.70;;;9.10;;
4744;SDS011;2386;42.138;24.746;2023-11-21T11:05:59;14.63;;;7.83;;
4744;SDS011;2386;42.138;24.746;2023-11-21T11:08:25;29.10;;;16.30;;
4744;SDS011;2386;42.138;24.746;2023-11-21T11:10:52;32.20;;;20.47;;
4744;SDS011;2386;42.138;24.746;2023-11-21T11:13:18;22.37;;;12.90;;
4744;SDS011;2386;42.138;24.746;2023-11-21T11:15:46;38.33;;;14.40;;
4744;SDS011;2386;42.138;24.746;2023-11-21T11:18:12;14.63;;;8.00;;
4744;SDS011;2386;42.138;24.746;2023-11-21T11:20:39;16.77;;;8.30;;
4744;SDS011;2386;42.138;24.746;2023-11-21T11:23:20;19.80;;;7.30;;
4744;SDS011;2386;42.138;24.746;2023-11-21T11:26:00;32.53;;;7.90;;
4744;SDS011;2386;42.138;24.746;2023-11-21T11:31:40;13.10;;;8.07;;
4744;SDS011;2386;42.138;24.746;2023-11-21T11:34:17;18.73;;;8.13;;
4744;SDS011;2386;42.138;24.746;2023-11-21T11:37:01;14.10;;;7.23;;
4744;SDS011;2386;42.138;24.746;2023-11-21T11:41:56;12.37;;;7.27;;
4744;SDS011;2386;42.138;24.746;2023-11-21T11:44:47;11.87;;;7.43;;
4744;SDS011;2386;42.138;24.746;2023-11-21T11:47:24;11.27;;;7.57;;
4744;SDS011;2386;42.138;24.746;2023-11-21T11:50:03;10.77;;;7.67;;
4744;SDS011;2386;42.138;24.746;2023-11-21T11:55:11;11.97;;;7.97;;
4744;SDS011;2386;42.138;24.746;2023-11-21T11:57:44;14.87;;;7.10;;
4744;SDS011;2386;42.138;24.746;2023-11-21T12:02:51;24.20;;;7.00;;
4744;SDS011;2386;42.138;24.746;2023-11-21T12:05:18;13.90;;;6.80;;
4744;SDS011;2386;42.138;24.746;2023-11-21T12:10:20;13.67;;;7.90;;
4744;SDS011;2386;42.138;24.746;2023-11-21T12:12:50;15.20;;;6.67;;
4744;SDS011;2386;42.138;24.746;2023-11-21T12:15:18;18.60;;;9.37;;
4744;SDS011;2386;42.138;24.746;2023-11-21T12:17:44;15.83;;;8.47;;
4744;SDS011;2386;42.138;24.746;2023-11-21T12:20:10;15.73;;;8.40;;
4744;SDS011;2386;42.138;24.746;2023-11-21T12:27:47;8.77;;;6.30;;
4744;SDS011;2386;42.138;24.746;2023-11-21T12:30:20;9.40;;;6.50;;
4744;SDS011;2386;42.138;24.746;2023-11-21T12:32:53;15.80;;;6.67;;
4744;SDS011;2386;42.138;24.746;2023-11-21T12:35:21;17.47;;;7.57;;
4744;SDS011;2386;42.138;24.746;2023-11-21T12:37:48;24.60;;;8.20;;
4744;SDS011;2386;42.138;24.746;2023-11-21T12:40:16;10.77;;;7.90;;
4744;SDS011;2386;42.138;24.746;2023-11-21T12:42:42;10.63;;;8.27;;
4744;SDS011;2386;42.138;24.746;2023-11-21T12:45:22;19.80;;;8.10;;
4744;SDS011;2386;42.138;24.746;2023-11-21T12:47:51;13.83;;;8.73;;
4744;SDS011;2386;42.138;24.746;2023-11-21T12:50:20;10.10;;;8.20;;
4744;SDS011;2386;42.138;24.746;2023-11-21T12:52:53;12.27;;;8.50;;
4744;SDS011;2386;42.138;24.746;2023-11-21T12:55:22;13.47;;;9.23;;
4744;SDS011;2386;42.138;24.746;2023-11-21T12:57:49;12.40;;;8.57;;
4744;SDS011;2386;42.138;24.746;2023-11-21T13:00:17;16.63;;;10.17;;
4744;SDS011;2386;42.138;24.746;2023-11-21T13:02:55;24.60;;;14.47;;
4744;SDS011;2386;42.138;24.746;2023-11-21T13:05:27;19.57;;;11.00;;
4744;SDS011;2386;42.138;24.746;2023-11-21T13:08:05;14.57;;;7.97;;
4744;SDS011;2386;42.138;24.746;2023-11-21T13:10:36;8.57;;;6.60;;
4744;SDS011;2386;42.138;24.746;2023-11-21T13:13:04;9.93;;;6.33;;
4744;SDS011;2386;42.138;24.746;2023-11-21T13:15:33;10.93;;;6.63;;
4744;SDS011;2386;42.138;24.746;2023-11-21T13:18:00;12.70;;;7.10;;
4744;SDS011;2386;42.138;24.746;2023-11-21T13:20:26;13.03;;;8.50;;
4744;SDS011;2386;42.138;24.746;2023-11-21T13:22:52;11.33;;;7.43;;
4744;SDS011;2386;42.138;24.746;2023-11-21T13:25:25;30.93;;;8.87;;
4744;SDS011;2386;42.138;24.746;2023-11-21T13:27:56;9.27;;;6.93;;
4744;SDS011;2386;42.138;24.746;2023-11-21T13:30:23;7.33;;;5.40;;
4744;SDS011;2386;42.138;24.746;2023-11-21T13:32:58;8.80;;;5.50;;
4744;SDS011;2386;42.138;24.746;2023-11-21T13:35:30;9.03;;;5.20;;
4744;SDS011;2386;42.138;24.746;2023-11-21T13:38:07;7.93;;;4.93;;
4744;SDS011;2386;42.138;24.746;2023-11-21T13:40:34;7.00;;;5.07;;
4744;SDS011;2386;42.138;24.746;2023-11-21T13:43:07;6.60;;;4.57;;
4744;SDS011;2386;42.138;24.746;2023-11-21T13:45:44;8.80;;;5.33;;
4744;SDS011;2386;42.138;24.746;2023-11-21T13:48:11;22.63;;;5.70;;
4744;SDS011;2386;42.138;24.746;2023-11-21T13:50:42;7.77;;;4.73;;
4744;SDS011;2386;42.138;24.746;2023-11-21T13:53:34;12.70;;;5.53;;
4744;SDS011;2386;42.138;24.746;2023-11-21T13:56:02;6.73;;;5.77;;
4744;SDS011;2386;42.138;24.746;2023-11-21T13:58:28;8.67;;;5.40;;
4744;SDS011;2386;42.138;24.746;2023-11-21T14:01:08;8.57;;;6.67;;
4744;SDS011;2386;42.138;24.746;2023-11-21T14:03:52;11.10;;;6.20;;
4744;SDS011;2386;42.138;24.746;2023-11-21T14:06:23;11.67;;;5.80;;
4744;SDS011;2386;42.138;24.746;2023-11-21T14:08:57;10.77;;;6.30;;
4744;SDS011;2386;42.138;24.746;2023-11-21T14:11:23;10.37;;;6.73;;
4744;SDS011;2386;42.138;24.746;2023-11-21T14:13:48;11.47;;;6.10;;
4744;SDS011;2386;42.138;24.746;2023-11-21T14:16:15;10.83;;;5.97;;
4744;SDS011;2386;42.138;24.746;2023-11-21T14:18:42;10.30;;;7.80;;
4744;SDS011;2386;42.138;24.746;2023-11-21T14:21:21;10.13;;;7.00;;
4744;SDS011;2386;42.138;24.746;2023-11-21T14:23:46;14.23;;;7.70;;
4744;SDS011;2386;42.138;24.746;2023-11-21T14:26:13;11.07;;;6.90;;
4744;SDS011;2386;42.138;24.746;2023-11-21T14:28:40;20.93;;;7.10;;
4744;SDS011;2386;42.138;24.746;2023-11-21T14:31:06;11.00;;;7.63;;
4744;SDS011;2386;42.138;24.746;2023-11-21T14:33:32;15.60;;;7.60;;
4744;SDS011;2386;42.138;24.746;2023-11-21T14:35:58;11.80;;;7.90;;
4744;SDS011;2386;42.138;24.746;2023-11-21T14:38:24;14.30;;;8.33;;
4744;SDS011;2386;42.138;24.746;2023-11-21T14:40:49;12.03;;;7.50;;
4744;SDS011;2386;42.138;24.746;2023-11-21T14:43:15;18.53;;;8.30;;
4744;SDS011;2386;42.138;24.746;2023-11-21T14:45:40;15.57;;;8.70;;
4744;SDS011;2386;42.138;24.746;2023-11-21T14:48:06;12.27;;;8.30;;
4744;SDS011;2386;42.138;24.746;2023-11-21T14:50:33;13.03;;;8.97;;
4744;SDS011;2386;42.138;24.746;2023-11-21T14:53:29;18.90;;;8.90;;
4744;SDS011;2386;42.138;24.746;2023-11-21T14:56:21;11.87;;;8.70;;
4744;SDS011;2386;42.138;24.746;2023-11-21T14:58:53;21.07;;;10.00;;
4744;SDS011;2386;42.138;24.746;2023-11-21T15:01:19;19.70;;;9.80;;
4744;SDS011;2386;42.138;24.746;2023-11-21T15:03:58;14.70;;;9.97;;
4744;SDS011;2386;42.138;24.746;2023-11-21T15:06:24;18.73;;;9.53;;
4744;SDS011;2386;42.138;24.746;2023-11-21T15:08:55;15.80;;;10.10;;
4744;SDS011;2386;42.138;24.746;2023-11-21T15:11:34;17.80;;;10.20;;
4744;SDS011;2386;42.138;24.746;2023-11-21T15:14:02;20.50;;;10.93;;